sensor_id;sensor_type;location;lat;lon;timestamp;pressure;altitude;pressure_sealevel;temperature;humidity
13732;BME280;6937;56.096;12.664;2023-12-20T00:00:51;100616.78;;;4.89;100.00
13732;BME280;6937;56.096;12.664;2023-12-20T00:03:16;100614.94;;;4.91;100.00
13732;BME280;6937;56.096;12.664;2023-12-20T00:05:42;100614.16;;;4.89;100.00
13732;BME280;6937;56.096;12.664;2023-12-20T00:08:07;100612.28;;;4.91;100.00
13732;BME280;6937;56.096;12.664;2023-12-20T00:10:32;100612.03;;;4.96;100.00
13732;BME280;6937;56.096;12.664;2023-12-20T00:12:58;100601.38;;;4.97;100.00
13732;BME280;6937;56.096;12.664;2023-12-20T00:15:23;100611.78;;;5.00;100.00
13732;BME280;6937;56.096;12.664;2023-12-20T00:17:48;100610.94;;;5.00;100.00
13732;BME280;6937;56.096;12.664;2023-12-20T00:20:14;100604.47;;;5.05;100.00
13732;BME280;6937;56.096;12.664;2023-12-20T00:22:39;100599.19;;;5.05;100.00
13732;BME280;6937;56.096;12.664;2023-12-20T00:25:05;100601.59;;;5.10;100.00
13732;BME280;6937;56.096;12.664;2023-12-20T00:27:30;100605.94;;;5.11;100.00
13732;BME280;6937;56.096;12.664;2023-12-20T00:29:55;100599.88;;;5.09;100.00
13732;BME280;6937;56.096;12.664;2023-12-20T00:32:21;100588.09;;;5.14;100.00
13732;BME280;6937;56.096;12.664;2023-12-20T00:34:46;100593.25;;;5.17;100.00
13732;BME280;6937;56.096;12.664;2023-12-20T00:37:11;100590.66;;;5.16;100.00
13732;BME280;6937;56.096;12.664;2023-12-20T00:39:37;100573.38;;;5.09;100.00
13732;BME280;6937;56.096;12.664;2023-12-20T00:42:02;100569.81;;;5.10;100.00
13732;BME280;6937;56.096;12.664;2023-12-20T00:44:28;100571.44;;;5.12;100.00
13732;BME280;6937;56.096;12.664;2023-12-20T00:46:53;100578.97;;;5.20;100.00
13732;BME280;6937;56.096;12.664;2023-12-20T00:49:18;100572.81;;;5.19;100.00
13732;BME280;6937;56.096;12.664;2023-12-20T00:51:44;100573.56;;;5.21;100.00
13732;BME280;6937;56.096;12.664;2023-12-20T00:54:09;100556.06;;;5.19;100.00
13732;BME280;6937;56.096;12.664;2023-12-20T00:56:35;100545.88;;;5.11;100.00
13732;BME280;6937;56.096;12.664;2023-12-20T00:59:00;100555.19;;;5.18;100.00
13732;BME280;6937;56.096;12.664;2023-12-20T01:01:26;100564.94;;;5.18;100.00
13732;BME280;6937;56.096;12.664;2023-12-20T01:03:51;100548.28;;;5.16;100.00
13732;BME280;6937;56.096;12.664;2023-12-20T01:06:17;100549.16;;;5.16;100.00
13732;BME280;6937;56.096;12.664;2023-12-20T01:08:42;100550.00;;;5.17;100.00
13732;BME280;6937;56.096;12.664;2023-12-20T01:11:07;100545.00;;;5.11;100.00
13732;BME280;6937;56.096;12.664;2023-12-20T01:13:33;100540.50;;;5.13;100.00
13732;BME280;6937;56.096;12.664;2023-12-20T01:15:58;100547.66;;;5.11;100.00
13732;BME280;6937;56.096;12.664;2023-12-20T01:18:23;100544.00;;;5.13;100.00
13732;BME280;6937;56.096;12.664;2023-12-20T01:20:49;100536.22;;;5.10;100.00
13732;BME280;6937;56.096;12.664;2023-12-20T01:23:14;100522.97;;;5.10;100.00
13732;BME280;6937;56.096;12.664;2023-12-20T01:25:39;100516.72;;;5.11;100.00
13732;BME280;6937;56.096;12.664;2023-12-20T01:28:05;100521.09;;;5.12;100.00
13732;BME280;6937;56.096;12.664;2023-12-20T01:30:30;100497.50;;;5.08;100.00
13732;BME280;6937;56.096;12.664;2023-12-20T01:32:56;100501.78;;;5.10;100.00
13732;BME280;6937;56.096;12.664;2023-12-20T01:35:21;100500.09;;;5.09;100.00
13732;BME280;6937;56.096;12.664;2023-12-20T01:37:46;100488.53;;;5.10;100.00
13732;BME280;6937;56.096;12.664;2023-12-20T01:40:12;100499.75;;;5.15;100.00
13732;BME280;6937;56.096;12.664;2023-12-20T01:42:37;100493.75;;;5.12;100.00
13732;BME280;6937;56.096;12.664;2023-12-20T01:45:03;100481.53;;;5.09;100.00
13732;BME280;6937;56.096;12.664;2023-12-20T01:47:29;100472.63;;;5.10;100.00
13732;BME280;6937;56.096;12.664;2023-12-20T01:49:54;100466.59;;;5.08;100.00
13732;BME280;6937;56.096;12.664;2023-12-20T01:52:22;100461.28;;;5.08;100.00
13732;BME280;6937;56.096;12.664;2023-12-20T01:54:48;100460.44;;;5.08;100.00
13732;BME280;6937;56.096;12.664;2023-12-20T01:57:14;100441.97;;;5.06;100.00
13732;BME280;6937;56.096;12.664;2023-12-20T01:59:40;100439.31;;;5.06;100.00
13732;BME280;6937;56.096;12.664;2023-12-20T02:02:07;100426.06;;;5.06;100.00
13732;BME280;6937;56.096;12.664;2023-12-20T02:04:32;100439.25;;;5.08;100.00
13732;BME280;6937;56.096;12.664;2023-12-20T02:10:34;100422.84;;;5.01;100.00
13732;BME280;6937;56.096;12.664;2023-12-20T02:12:59;100420.94;;;5.03;100.00
13732;BME280;6937;56.096;12.664;2023-12-20T02:15:25;100425.31;;;5.04;100.00
13732;BME280;6937;56.096;12.664;2023-12-20T02:17:50;100421.81;;;5.04;100.00
13732;BME280;6937;56.096;12.664;2023-12-20T02:20:16;100442.13;;;5.03;100.00
13732;BME280;6937;56.096;12.664;2023-12-20T02:22:41;100424.38;;;5.05;100.00
13732;BME280;6937;56.096;12.664;2023-12-20T02:25:07;100425.25;;;5.06;100.00
13732;BME280;6937;56.096;12.664;2023-12-20T02:27:32;100428.66;;;5.08;100.00
13732;BME280;6937;56.096;12.664;2023-12-20T02:29:58;100423.34;;;5.08;100.00
13732;BME280;6937;56.096;12.664;2023-12-20T02:32:24;100427.09;;;5.04;100.00
13732;BME280;6937;56.096;12.664;2023-12-20T02:34:53;100417.19;;;5.07;100.00
13732;BME280;6937;56.096;12.664;2023-12-20T02:37:19;100394.22;;;5.08;100.00
13732;BME280;6937;56.096;12.664;2023-12-20T02:39:44;100394.16;;;5.09;100.00
13732;BME280;6937;56.096;12.664;2023-12-20T02:42:09;100381.84;;;5.08;100.00
13732;BME280;6937;56.096;12.664;2023-12-20T02:44:35;100380.13;;;5.07;100.00
13732;BME280;6937;56.096;12.664;2023-12-20T02:47:02;100382.88;;;5.06;100.00
13732;BME280;6937;56.096;12.664;2023-12-20T02:49:27;100381.03;;;5.06;100.00
13732;BME280;6937;56.096;12.664;2023-12-20T02:51:52;100374.91;;;5.06;100.00
13732;BME280;6937;56.096;12.664;2023-12-20T02:54:18;100379.34;;;5.05;100.00
13732;BME280;6937;56.096;12.664;2023-12-20T02:56:43;100375.94;;;5.03;100.00
13732;BME280;6937;56.096;12.664;2023-12-20T02:59:09;100375.16;;;5.01;100.00
13732;BME280;6937;56.096;12.664;2023-12-20T03:01:35;100377.03;;;4.99;100.00
13732;BME280;6937;56.096;12.664;2023-12-20T03:04:01;100368.16;;;5.00;100.00
13732;BME280;6937;56.096;12.664;2023-12-20T03:06:26;100355.84;;;4.99;100.00
13732;BME280;6937;56.096;12.664;2023-12-20T03:08:52;100356.03;;;4.96;100.00
13732;BME280;6937;56.096;12.664;2023-12-20T03:11:17;100346.28;;;4.97;100.00
13732;BME280;6937;56.096;12.664;2023-12-20T03:13:43;100348.09;;;4.96;100.00
13732;BME280;6937;56.096;12.664;2023-12-20T03:16:13;100331.94;;;5.01;100.00
13732;BME280;6937;56.096;12.664;2023-12-20T03:18:39;100321.53;;;4.98;100.00
13732;BME280;6937;56.096;12.664;2023-12-20T03:21:04;100318.97;;;4.96;100.00
13732;BME280;6937;56.096;12.664;2023-12-20T03:23:30;100316.13;;;4.99;100.00
13732;BME280;6937;56.096;12.664;2023-12-20T03:25:57;100305.53;;;4.99;100.00
13732;BME280;6937;56.096;12.664;2023-12-20T03:28:23;100308.97;;;5.01;100.00
13732;BME280;6937;56.096;12.664;2023-12-20T03:30:49;100291.38;;;5.00;100.00
13732;BME280;6937;56.096;12.664;2023-12-20T03:33:14;100294.78;;;5.02;100.00
13732;BME280;6937;56.096;12.664;2023-12-20T03:35:40;100291.19;;;5.03;100.00
13732;BME280;6937;56.096;12.664;2023-12-20T03:38:05;100290.25;;;5.04;100.00
13732;BME280;6937;56.096;12.664;2023-12-20T03:40:30;100284.97;;;5.04;100.00
13732;BME280;6937;56.096;12.664;2023-12-20T03:42:56;100282.13;;;5.07;100.00
13732;BME280;6937;56.096;12.664;2023-12-20T03:45:21;100283.91;;;5.07;100.00
13732;BME280;6937;56.096;12.664;2023-12-20T03:47:47;100277.75;;;5.06;100.00
13732;BME280;6937;56.096;12.664;2023-12-20T03:50:13;100274.09;;;5.09;100.00
13732;BME280;6937;56.096;12.664;2023-12-20T03:52:38;100263.25;;;5.13;100.00
13732;BME280;6937;56.096;12.664;2023-12-20T03:55:04;100255.13;;;5.16;100.00
13732;BME280;6937;56.096;12.664;2023-12-20T03:57:29;100256.84;;;5.17;100.00
13732;BME280;6937;56.096;12.664;2023-12-20T03:59:55;100258.53;;;5.18;100.00
13732;BME280;6937;56.096;12.664;2023-12-20T04:02:20;100245.94;;;5.22;100.00
13732;BME280;6937;56.096;12.664;2023-12-20T04:04:46;100241.63;;;5.21;100.00
13732;BME280;6937;56.096;12.664;2023-12-20T04:07:11;100250.31;;;5.23;100.00
13732;BME280;6937;56.096;12.664;2023-12-20T04:09:36;100249.13;;;5.28;100.00
13732;BME280;6937;56.096;12.664;2023-12-20T04:12:03;100241.31;;;5.25;100.00
13732;BME280;6937;56.096;12.664;2023-12-20T04:14:28;100249.13;;;5.28;100.00
13732;BME280;6937;56.096;12.664;2023-12-20T04:16:54;100244.38;;;5.33;100.00
13732;BME280;6937;56.096;12.664;2023-12-20T04:19:19;100242.50;;;5.35;100.00
13732;BME280;6937;56.096;12.664;2023-12-20T04:21:45;100235.97;;;5.41;100.00
13732;BME280;6937;56.096;12.664;2023-12-20T04:24:10;100226.22;;;5.42;100.00
13732;BME280;6937;56.096;12.664;2023-12-20T04:26:36;100225.97;;;5.46;100.00
13732;BME280;6937;56.096;12.664;2023-12-20T04:29:01;100225.59;;;5.52;100.00
13732;BME280;6937;56.096;12.664;2023-12-20T04:31:27;100217.56;;;5.54;100.00
13732;BME280;6937;56.096;12.664;2023-12-20T04:33:52;100216.78;;;5.52;100.00
13732;BME280;6937;56.096;12.664;2023-12-20T04:36:18;100204.31;;;5.54;100.00
13732;BME280;6937;56.096;12.664;2023-12-20T04:38:43;100191.03;;;5.54;100.00
13732;BME280;6937;56.096;12.664;2023-12-20T04:41:08;100206.69;;;5.58;100.00
13732;BME280;6937;56.096;12.664;2023-12-20T04:43:34;100207.50;;;5.59;100.00
13732;BME280;6937;56.096;12.664;2023-12-20T04:45:59;100200.25;;;5.62;100.00
13732;BME280;6937;56.096;12.664;2023-12-20T04:48:25;100191.13;;;5.66;100.00
13732;BME280;6937;56.096;12.664;2023-12-20T04:50:50;100189.25;;;5.68;100.00
13732;BME280;6937;56.096;12.664;2023-12-20T04:53:15;100181.97;;;5.72;100.00
13732;BME280;6937;56.096;12.664;2023-12-20T04:55:41;100185.34;;;5.74;100.00
13732;BME280;6937;56.096;12.664;2023-12-20T04:58:06;100179.97;;;5.75;100.00
13732;BME280;6937;56.096;12.664;2023-12-20T05:00:32;100184.44;;;5.75;100.00
13732;BME280;6937;56.096;12.664;2023-12-20T05:02:57;100180.84;;;5.76;100.00
13732;BME280;6937;56.096;12.664;2023-12-20T05:05:22;100176.28;;;5.78;100.00
13732;BME280;6937;56.096;12.664;2023-12-20T05:07:48;100162.28;;;5.76;100.00
13732;BME280;6937;56.096;12.664;2023-12-20T05:10:14;100160.38;;;5.78;100.00
13732;BME280;6937;56.096;12.664;2023-12-20T05:12:39;100155.19;;;5.76;100.00
13732;BME280;6937;56.096;12.664;2023-12-20T05:15:06;100164.16;;;5.74;100.00
13732;BME280;6937;56.096;12.664;2023-12-20T05:17:32;100137.56;;;5.75;100.00
13732;BME280;6937;56.096;12.664;2023-12-20T05:19:57;100127.03;;;5.74;100.00
13732;BME280;6937;56.096;12.664;2023-12-20T05:22:22;100126.88;;;5.77;100.00
13732;BME280;6937;56.096;12.664;2023-12-20T05:24:48;100105.94;;;5.72;100.00
13732;BME280;6937;56.096;12.664;2023-12-20T05:27:13;100116.44;;;5.74;100.00
13732;BME280;6937;56.096;12.664;2023-12-20T05:29:39;100118.16;;;5.75;100.00
13732;BME280;6937;56.096;12.664;2023-12-20T05:32:04;100104.88;;;5.75;100.00
13732;BME280;6937;56.096;12.664;2023-12-20T05:34:31;100103.19;;;5.74;100.00
13732;BME280;6937;56.096;12.664;2023-12-20T05:36:58;100105.81;;;5.74;100.00
13732;BME280;6937;56.096;12.664;2023-12-20T05:39:23;100093.53;;;5.73;100.00
13732;BME280;6937;56.096;12.664;2023-12-20T05:41:49;100099.97;;;5.69;100.00
13732;BME280;6937;56.096;12.664;2023-12-20T05:44:14;100083.09;;;5.70;100.00
13732;BME280;6937;56.096;12.664;2023-12-20T05:46:40;100098.19;;;5.69;100.00
13732;BME280;6937;56.096;12.664;2023-12-20T05:49:06;100088.41;;;5.70;100.00
13732;BME280;6937;56.096;12.664;2023-12-20T05:51:31;100085.22;;;5.65;100.00
13732;BME280;6937;56.096;12.664;2023-12-20T05:53:56;100076.59;;;5.61;100.00
13732;BME280;6937;56.096;12.664;2023-12-20T05:56:22;100075.84;;;5.59;100.00
13732;BME280;6937;56.096;12.664;2023-12-20T05:58:47;100065.22;;;5.59;100.00
13732;BME280;6937;56.096;12.664;2023-12-20T06:01:14;100071.50;;;5.58;100.00
13732;BME280;6937;56.096;12.664;2023-12-20T06:03:42;100060.06;;;5.58;100.00
13732;BME280;6937;56.096;12.664;2023-12-20T06:06:08;100055.69;;;5.57;100.00
13732;BME280;6937;56.096;12.664;2023-12-20T06:08:33;100058.34;;;5.57;100.00
13732;BME280;6937;56.096;12.664;2023-12-20T06:10:59;100048.78;;;5.54;100.00
13732;BME280;6937;56.096;12.664;2023-12-20T06:13:25;100039.13;;;5.53;100.00
13732;BME280;6937;56.096;12.664;2023-12-20T06:15:51;100045.09;;;5.57;100.00
13732;BME280;6937;56.096;12.664;2023-12-20T06:18:17;100051.31;;;5.56;100.00
13732;BME280;6937;56.096;12.664;2023-12-20T06:20:42;100041.88;;;5.52;100.00
13732;BME280;6937;56.096;12.664;2023-12-20T06:23:07;100052.47;;;5.52;100.00
13732;BME280;6937;56.096;12.664;2023-12-20T06:25:33;100035.34;;;5.57;100.00
13732;BME280;6937;56.096;12.664;2023-12-20T06:27:58;100029.28;;;5.55;100.00
13732;BME280;6937;56.096;12.664;2023-12-20T06:30:24;100029.38;;;5.54;100.00
13732;BME280;6937;56.096;12.664;2023-12-20T06:32:50;100025.78;;;5.55;100.00
13732;BME280;6937;56.096;12.664;2023-12-20T06:35:16;100021.44;;;5.54;100.00
13732;BME280;6937;56.096;12.664;2023-12-20T06:37:41;100019.63;;;5.54;100.00
13732;BME280;6937;56.096;12.664;2023-12-20T06:40:11;100011.84;;;5.51;100.00
13732;BME280;6937;56.096;12.664;2023-12-20T06:42:37;100009.03;;;5.54;100.00
13732;BME280;6937;56.096;12.664;2023-12-20T06:45:03;100002.75;;;5.55;100.00
13732;BME280;6937;56.096;12.664;2023-12-20T06:47:28;100011.56;;;5.56;100.00
13732;BME280;6937;56.096;12.664;2023-12-20T06:49:54;100001.75;;;5.58;100.00
13732;BME280;6937;56.096;12.664;2023-12-20T06:52:19;100005.25;;;5.58;100.00
13732;BME280;6937;56.096;12.664;2023-12-20T06:54:45;99990.38;;;5.56;100.00
13732;BME280;6937;56.096;12.664;2023-12-20T06:57:10;99992.94;;;5.57;100.00
13732;BME280;6937;56.096;12.664;2023-12-20T06:59:41;99995.03;;;5.52;100.00
13732;BME280;6937;56.096;12.664;2023-12-20T07:02:08;99991.22;;;5.56;100.00
13732;BME280;6937;56.096;12.664;2023-12-20T07:04:35;99980.53;;;5.58;100.00
13732;BME280;6937;56.096;12.664;2023-12-20T07:07:04;99990.28;;;5.57;100.00
13732;BME280;6937;56.096;12.664;2023-12-20T07:09:29;99968.22;;;5.57;100.00
13732;BME280;6937;56.096;12.664;2023-12-20T07:11:55;99973.44;;;5.58;100.00
13732;BME280;6937;56.096;12.664;2023-12-20T07:14:21;99972.59;;;5.58;100.00
13732;BME280;6937;56.096;12.664;2023-12-20T07:16:46;99972.88;;;5.53;100.00
13732;BME280;6937;56.096;12.664;2023-12-20T07:19:12;99977.31;;;5.53;100.00
13732;BME280;6937;56.096;12.664;2023-12-20T07:21:37;99988.88;;;5.52;100.00
13732;BME280;6937;56.096;12.664;2023-12-20T07:24:03;99971.28;;;5.51;100.00
13732;BME280;6937;56.096;12.664;2023-12-20T07:26:28;99974.09;;;5.48;100.00
13732;BME280;6937;56.096;12.664;2023-12-20T07:28:54;99981.41;;;5.44;100.00
13732;BME280;6937;56.096;12.664;2023-12-20T07:31:19;99983.31;;;5.42;100.00
13732;BME280;6937;56.096;12.664;2023-12-20T07:33:44;99970.25;;;5.39;100.00
13732;BME280;6937;56.096;12.664;2023-12-20T07:36:10;99979.34;;;5.35;100.00
13732;BME280;6937;56.096;12.664;2023-12-20T07:38:36;99981.22;;;5.33;100.00
13732;BME280;6937;56.096;12.664;2023-12-20T07:41:02;99964.47;;;5.32;100.00
13732;BME280;6937;56.096;12.664;2023-12-20T07:43:29;99959.59;;;5.26;100.00
13732;BME280;6937;56.096;12.664;2023-12-20T07:45:55;99946.53;;;5.23;100.00
13732;BME280;6937;56.096;12.664;2023-12-20T07:48:20;99961.50;;;5.24;100.00
13732;BME280;6937;56.096;12.664;2023-12-20T07:50:45;99943.91;;;5.23;100.00
13732;BME280;6937;56.096;12.664;2023-12-20T07:53:11;99943.25;;;5.20;100.00
13732;BME280;6937;56.096;12.664;2023-12-20T07:55:36;99952.03;;;5.20;100.00
13732;BME280;6937;56.096;12.664;2023-12-20T07:58:02;99960.06;;;5.19;100.00
13732;BME280;6937;56.096;12.664;2023-12-20T08:00:27;99951.47;;;5.15;100.00
13732;BME280;6937;56.096;12.664;2023-12-20T08:02:53;99953.38;;;5.13;100.00
13732;BME280;6937;56.096;12.664;2023-12-20T08:05:18;99948.81;;;5.15;100.00
13732;BME280;6937;56.096;12.664;2023-12-20T08:07:44;99960.47;;;5.13;100.00
13732;BME280;6937;56.096;12.664;2023-12-20T08:10:10;99948.81;;;5.15;100.00
13732;BME280;6937;56.096;12.664;2023-12-20T08:12:35;99949.03;;;5.12;100.00
13732;BME280;6937;56.096;12.664;2023-12-20T08:15:02;99934.72;;;5.15;100.00
13732;BME280;6937;56.096;12.664;2023-12-20T08:17:27;99936.53;;;5.14;100.00
13732;BME280;6937;56.096;12.664;2023-12-20T08:19:52;99939.28;;;5.13;100.00
13732;BME280;6937;56.096;12.664;2023-12-20T08:22:18;99945.44;;;5.13;100.00
13732;BME280;6937;56.096;12.664;2023-12-20T08:24:43;99947.22;;;5.13;100.00
13732;BME280;6937;56.096;12.664;2023-12-20T08:27:09;99958.75;;;5.12;100.00
13732;BME280;6937;56.096;12.664;2023-12-20T08:29:35;99954.59;;;5.08;100.00
13732;BME280;6937;56.096;12.664;2023-12-20T08:32:01;99961.50;;;5.10;100.00
13732;BME280;6937;56.096;12.664;2023-12-20T08:34:27;99964.91;;;5.12;100.00
13732;BME280;6937;56.096;12.664;2023-12-20T08:36:52;99959.81;;;5.09;100.00
13732;BME280;6937;56.096;12.664;2023-12-20T08:39:18;99945.06;;;5.05;100.00
13732;BME280;6937;56.096;12.664;2023-12-20T08:41:43;99955.66;;;5.05;100.00
13732;BME280;6937;56.096;12.664;2023-12-20T08:44:09;99942.50;;;5.04;100.00
13732;BME280;6937;56.096;12.664;2023-12-20T08:46:35;99930.31;;;5.01;100.00
13732;BME280;6937;56.096;12.664;2023-12-20T08:49:01;99907.34;;;5.02;100.00
13732;BME280;6937;56.096;12.664;2023-12-20T08:51:26;99898.63;;;5.00;100.00
13732;BME280;6937;56.096;12.664;2023-12-20T08:53:53;99884.63;;;4.98;100.00
13732;BME280;6937;56.096;12.664;2023-12-20T08:56:18;99874.78;;;5.00;100.00
13732;BME280;6937;56.096;12.664;2023-12-20T08:58:45;99864.19;;;5.00;100.00
13732;BME280;6937;56.096;12.664;2023-12-20T09:01:10;99873.94;;;4.99;100.00
13732;BME280;6937;56.096;12.664;2023-12-20T09:03:36;99845.78;;;4.98;100.00
13732;BME280;6937;56.096;12.664;2023-12-20T09:06:01;99826.28;;;4.99;100.00
13732;BME280;6937;56.096;12.664;2023-12-20T09:08:27;99823.75;;;4.98;100.00
13732;BME280;6937;56.096;12.664;2023-12-20T09:10:53;99806.34;;;4.94;100.00
13732;BME280;6937;56.096;12.664;2023-12-20T09:13:18;99809.84;;;4.94;100.00
13732;BME280;6937;56.096;12.664;2023-12-20T09:15:44;99818.75;;;4.93;100.00
13732;BME280;6937;56.096;12.664;2023-12-20T09:18:09;99799.63;;;4.88;100.00
13732;BME280;6937;56.096;12.664;2023-12-20T09:20:35;99810.16;;;4.90;100.00
13732;BME280;6937;56.096;12.664;2023-12-20T09:23:00;99806.66;;;4.89;100.00
13732;BME280;6937;56.096;12.664;2023-12-20T09:25:25;99801.56;;;4.86;100.00
13732;BME280;6937;56.096;12.664;2023-12-20T09:27:51;99804.09;;;4.87;100.00
13732;BME280;6937;56.096;12.664;2023-12-20T09:30:18;99796.16;;;4.87;100.00
13732;BME280;6937;56.096;12.664;2023-12-20T09:32:43;99796.16;;;4.87;100.00
13732;BME280;6937;56.096;12.664;2023-12-20T09:35:09;99798.69;;;4.89;100.00
13732;BME280;6937;56.096;12.664;2023-12-20T09:37:34;99797.75;;;4.90;100.00
13732;BME280;6937;56.096;12.664;2023-12-20T09:40:00;99800.41;;;4.90;100.00
13732;BME280;6937;56.096;12.664;2023-12-20T09:42:38;99789.63;;;4.93;100.00
13732;BME280;6937;56.096;12.664;2023-12-20T09:45:08;99774.03;;;4.88;100.00
13732;BME280;6937;56.096;12.664;2023-12-20T09:47:35;99775.44;;;4.94;100.00
13732;BME280;6937;56.096;12.664;2023-12-20T09:50:02;99774.59;;;4.94;100.00
13732;BME280;6937;56.096;12.664;2023-12-20T09:52:28;99770.16;;;4.94;100.00
13732;BME280;6937;56.096;12.664;2023-12-20T09:54:55;99768.53;;;4.92;100.00
13732;BME280;6937;56.096;12.664;2023-12-20T09:57:22;99774.69;;;4.92;100.00
13732;BME280;6937;56.096;12.664;2023-12-20T09:59:47;99768.44;;;4.93;100.00
13732;BME280;6937;56.096;12.664;2023-12-20T10:02:13;99765.78;;;4.93;100.00
13732;BME280;6937;56.096;12.664;2023-12-20T10:04:46;99755.19;;;4.93;100.00
13732;BME280;6937;56.096;12.664;2023-12-20T10:07:12;99752.56;;;4.93;100.00
13732;BME280;6937;56.096;12.664;2023-12-20T10:09:38;99740.06;;;4.95;100.00
13732;BME280;6937;56.096;12.664;2023-12-20T10:12:04;99736.47;;;4.96;100.00
13732;BME280;6937;56.096;12.664;2023-12-20T10:14:32;99741.66;;;4.98;100.00
13732;BME280;6937;56.096;12.664;2023-12-20T10:17:04;99729.47;;;4.95;100.00
13732;BME280;6937;56.096;12.664;2023-12-20T10:19:31;99725.88;;;4.96;100.00
13732;BME280;6937;56.096;12.664;2023-12-20T10:21:59;99724.00;;;4.98;100.00
13732;BME280;6937;56.096;12.664;2023-12-20T10:24:24;99705.53;;;4.97;100.00
13732;BME280;6937;56.096;12.664;2023-12-20T10:27:01;99718.50;;;5.01;100.00
13732;BME280;6937;56.096;12.664;2023-12-20T10:29:32;99693.72;;;5.02;100.00
13732;BME280;6937;56.096;12.664;2023-12-20T10:31:58;99699.19;;;4.99;100.00
13732;BME280;6937;56.096;12.664;2023-12-20T10:34:23;99700.16;;;4.98;100.00
13732;BME280;6937;56.096;12.664;2023-12-20T10:36:49;99692.94;;;5.00;100.00
13732;BME280;6937;56.096;12.664;2023-12-20T10:39:15;99691.16;;;5.01;100.00
13732;BME280;6937;56.096;12.664;2023-12-20T10:41:43;99692.94;;;5.00;100.00
13732;BME280;6937;56.096;12.664;2023-12-20T10:44:10;99683.13;;;5.02;100.00
13732;BME280;6937;56.096;12.664;2023-12-20T10:46:36;99689.78;;;5.08;100.00
13732;BME280;6937;56.096;12.664;2023-12-20T10:49:04;99681.84;;;5.08;100.00
13732;BME280;6937;56.096;12.664;2023-12-20T10:51:31;99682.28;;;5.02;100.00
13732;BME280;6937;56.096;12.664;2023-12-20T10:53:56;99681.13;;;5.06;100.00
13732;BME280;6937;56.096;12.664;2023-12-20T10:56:22;99677.72;;;5.04;100.00
13732;BME280;6937;56.096;12.664;2023-12-20T10:58:49;99670.63;;;5.04;100.00
13732;BME280;6937;56.096;12.664;2023-12-20T11:01:16;99664.59;;;5.02;100.00
13732;BME280;6937;56.096;12.664;2023-12-20T11:03:51;99667.97;;;5.04;100.00
13732;BME280;6937;56.096;12.664;2023-12-20T11:06:51;99665.84;;;4.97;100.00
13732;BME280;6937;56.096;12.664;2023-12-20T11:09:32;99660.75;;;4.94;100.00
13732;BME280;6937;56.096;12.664;2023-12-20T11:12:20;99683.22;;;5.01;100.00
13732;BME280;6937;56.096;12.664;2023-12-20T11:14:48;99657.75;;;4.46;100.00
13732;BME280;6937;56.096;12.664;2023-12-20T11:17:14;99667.16;;;4.09;100.00
13732;BME280;6937;56.096;12.664;2023-12-20T11:22:32;99660.16;;;4.22;100.00
13732;BME280;6937;56.096;12.664;2023-12-20T11:25:03;99659.28;;;4.36;100.00
13732;BME280;6937;56.096;12.664;2023-12-20T11:27:30;99653.41;;;4.45;100.00
13732;BME280;6937;56.096;12.664;2023-12-20T11:29:58;99656.06;;;4.58;100.00
13732;BME280;6937;56.096;12.664;2023-12-20T11:37:36;99647.91;;;4.75;100.00
13732;BME280;6937;56.096;12.664;2023-12-20T11:40:06;99657.31;;;4.79;100.00
13732;BME280;6937;56.096;12.664;2023-12-20T11:42:51;99650.13;;;4.81;100.00
13732;BME280;6937;56.096;12.664;2023-12-20T11:45:19;99648.13;;;4.84;100.00
13732;BME280;6937;56.096;12.664;2023-12-20T11:47:48;99639.03;;;4.88;100.00
13732;BME280;6937;56.096;12.664;2023-12-20T11:50:19;99638.81;;;4.92;100.00
13732;BME280;6937;56.096;12.664;2023-12-20T11:52:45;99639.66;;;4.92;100.00
13732;BME280;6937;56.096;12.664;2023-12-20T11:55:11;99642.44;;;4.91;100.00
13732;BME280;6937;56.096;12.664;2023-12-20T11:57:37;99627.19;;;4.94;100.00
13732;BME280;6937;56.096;12.664;2023-12-20T12:00:03;99628.34;;;4.90;100.00
13732;BME280;6937;56.096;12.664;2023-12-20T12:02:30;99629.50;;;4.86;100.00
13732;BME280;6937;56.096;12.664;2023-12-20T12:04:55;99621.78;;;4.83;100.00
13732;BME280;6937;56.096;12.664;2023-12-20T12:07:22;99619.75;;;4.86;100.00
13732;BME280;6937;56.096;12.664;2023-12-20T12:09:47;99632.78;;;4.90;100.00
13732;BME280;6937;56.096;12.664;2023-12-20T12:12:13;99620.28;;;4.92;100.00
13732;BME280;6937;56.096;12.664;2023-12-20T12:14:39;99624.84;;;4.90;100.00
13732;BME280;6937;56.096;12.664;2023-12-20T12:17:13;99621.94;;;4.80;100.00
13732;BME280;6937;56.096;12.664;2023-12-20T12:19:43;99630.31;;;4.74;100.00
13732;BME280;6937;56.096;12.664;2023-12-20T12:22:11;99619.72;;;4.74;100.00
13732;BME280;6937;56.096;12.664;2023-12-20T12:24:41;99620.38;;;4.77;100.00
13732;BME280;6937;56.096;12.664;2023-12-20T12:27:07;99621.94;;;4.80;100.00
13732;BME280;6937;56.096;12.664;2023-12-20T12:29:36;99619.84;;;4.85;100.00
13732;BME280;6937;56.096;12.664;2023-12-20T12:32:06;99617.84;;;4.88;100.00
13732;BME280;6937;56.096;12.664;2023-12-20T12:34:32;99616.06;;;4.89;100.00
13732;BME280;6937;56.096;12.664;2023-12-20T12:36:58;99612.78;;;4.98;100.00
13732;BME280;6937;56.096;12.664;2023-12-20T12:39:24;99618.19;;;4.97;100.00
13732;BME280;6937;56.096;12.664;2023-12-20T12:41:52;99626.22;;;4.95;100.00
13732;BME280;6937;56.096;12.664;2023-12-20T12:44:18;99608.75;;;4.93;100.00
13732;BME280;6937;56.096;12.664;2023-12-20T12:46:46;99612.16;;;4.95;100.00
13732;BME280;6937;56.096;12.664;2023-12-20T12:49:12;99607.03;;;4.92;100.00
13732;BME280;6937;56.096;12.664;2023-12-20T12:51:37;99610.66;;;4.91;100.00
13732;BME280;6937;56.096;12.664;2023-12-20T12:54:03;99613.44;;;5.02;100.00
13732;BME280;6937;56.096;12.664;2023-12-20T12:56:29;99612.25;;;5.56;100.00
13732;BME280;6937;56.096;12.664;2023-12-20T12:58:54;99605.19;;;6.06;100.00
13732;BME280;6937;56.096;12.664;2023-12-20T13:01:20;99601.03;;;6.14;100.00